sensor_id;sensor_type;location;lat;lon;timestamp;P1;durP1;ratioP1;P2;durP2;ratioP2
32082;SDS011;18597;48.328;7.932;2023-05-10T00:02:11;2.10;;;0.80;;
32082;SDS011;18597;48.328;7.932;2023-05-10T00:04:37;0.80;;;0.80;;
32082;SDS011;18597;48.328;7.932;2023-05-10T00:07:03;2.00;;;1.40;;
32082;SDS011;18597;48.328;7.932;2023-05-10T00:09:29;1.20;;;1.20;;
32082;SDS011;18597;48.328;7.932;2023-05-10T00:11:54;0.70;;;0.67;;
32082;SDS011;18597;48.328;7.932;2023-05-10T00:14:23;0.80;;;0.80;;
32082;SDS011;18597;48.328;7.932;2023-05-10T00:16:49;0.90;;;0.90;;
32082;SDS011;18597;48.328;7.932;2023-05-10T00:19:14;2.30;;;0.80;;
32082;SDS011;18597;48.328;7.932;2023-05-10T00:21:40;1.10;;;1.00;;
32082;SDS011;18597;48.328;7.932;2023-05-10T00:24:06;0.80;;;0.80;;
32082;SDS011;18597;48.328;7.932;2023-05-10T00:26:32;0.50;;;0.50;;
32082;SDS011;18597;48.328;7.932;2023-05-10T00:28:58;0.70;;;0.70;;
32082;SDS011;18597;48.328;7.932;2023-05-10T00:31:23;1.37;;;1.10;;
32082;SDS011;18597;48.328;7.932;2023-05-10T00:33:49;6.10;;;0.70;;
32082;SDS011;18597;48.328;7.932;2023-05-10T00:36:15;0.80;;;0.80;;
32082;SDS011;18597;48.328;7.932;2023-05-10T00:38:41;1.70;;;0.97;;
32082;SDS011;18597;48.328;7.932;2023-05-10T00:41:06;0.80;;;0.80;;
32082;SDS011;18597;48.328;7.932;2023-05-10T00:43:32;1.37;;;0.80;;
32082;SDS011;18597;48.328;7.932;2023-05-10T00:45:58;4.70;;;0.83;;
32082;SDS011;18597;48.328;7.932;2023-05-10T00:48:24;1.70;;;0.70;;
32082;SDS011;18597;48.328;7.932;2023-05-10T00:50:50;5.03;;;1.00;;
32082;SDS011;18597;48.328;7.932;2023-05-10T00:53:16;1.70;;;0.80;;
32082;SDS011;18597;48.328;7.932;2023-05-10T00:55:42;1.13;;;1.03;;
32082;SDS011;18597;48.328;7.932;2023-05-10T00:58:08;5.30;;;1.10;;
32082;SDS011;18597;48.328;7.932;2023-05-10T01:00:34;1.37;;;0.73;;
32082;SDS011;18597;48.328;7.932;2023-05-10T01:03:02;1.23;;;0.93;;
32082;SDS011;18597;48.328;7.932;2023-05-10T01:05:28;0.80;;;0.80;;
32082;SDS011;18597;48.328;7.932;2023-05-10T01:07:54;8.37;;;0.97;;
32082;SDS011;18597;48.328;7.932;2023-05-10T01:10:21;8.50;;;0.97;;
32082;SDS011;18597;48.328;7.932;2023-05-10T01:12:47;1.23;;;0.90;;
32082;SDS011;18597;48.328;7.932;2023-05-10T01:15:13;0.67;;;0.67;;
32082;SDS011;18597;48.328;7.932;2023-05-10T01:17:41;1.10;;;0.80;;
32082;SDS011;18597;48.328;7.932;2023-05-10T01:20:10;4.73;;;0.97;;
32082;SDS011;18597;48.328;7.932;2023-05-10T01:28:39;0.70;;;0.70;;
32082;SDS011;18597;48.328;7.932;2023-05-10T01:31:33;4.10;;;1.00;;
32082;SDS011;18597;48.328;7.932;2023-05-10T01:34:42;1.03;;;0.70;;
32082;SDS011;18597;48.328;7.932;2023-05-10T01:37:25;1.60;;;1.50;;
32082;SDS011;18597;48.328;7.932;2023-05-10T01:40:20;1.27;;;1.27;;
32082;SDS011;18597;48.328;7.932;2023-05-10T01:43:19;5.37;;;1.10;;
32082;SDS011;18597;48.328;7.932;2023-05-10T01:46:09;5.03;;;1.20;;
32082;SDS011;18597;48.328;7.932;2023-05-10T01:48:47;1.30;;;1.20;;
32082;SDS011;18597;48.328;7.932;2023-05-10T01:51:17;3.33;;;1.30;;
32082;SDS011;18597;48.328;7.932;2023-05-10T01:53:48;1.40;;;1.40;;
32082;SDS011;18597;48.328;7.932;2023-05-10T01:56:18;2.10;;;1.27;;
32082;SDS011;18597;48.328;7.932;2023-05-10T01:58:49;2.30;;;1.43;;
32082;SDS011;18597;48.328;7.932;2023-05-10T02:01:17;1.47;;;1.37;;
32082;SDS011;18597;48.328;7.932;2023-05-10T02:03:46;0.90;;;0.90;;
32082;SDS011;18597;48.328;7.932;2023-05-10T02:06:16;7.77;;;1.47;;
32082;SDS011;18597;48.328;7.932;2023-05-10T02:08:45;5.83;;;1.27;;
32082;SDS011;18597;48.328;7.932;2023-05-10T02:11:13;1.63;;;1.63;;
32082;SDS011;18597;48.328;7.932;2023-05-10T02:13:39;1.10;;;1.10;;
32082;SDS011;18597;48.328;7.932;2023-05-10T02:16:07;2.30;;;1.73;;
32082;SDS011;18597;48.328;7.932;2023-05-10T02:18:33;1.10;;;1.00;;
32082;SDS011;18597;48.328;7.932;2023-05-10T02:21:01;2.57;;;1.30;;
32082;SDS011;18597;48.328;7.932;2023-05-10T02:23:29;2.93;;;1.27;;
32082;SDS011;18597;48.328;7.932;2023-05-10T02:25:55;3.50;;;2.17;;
32082;SDS011;18597;48.328;7.932;2023-05-10T02:28:23;1.23;;;1.23;;
32082;SDS011;18597;48.328;7.932;2023-05-10T02:30:51;0.77;;;0.77;;
32082;SDS011;18597;48.328;7.932;2023-05-10T02:33:17;3.13;;;1.47;;
32082;SDS011;18597;48.328;7.932;2023-05-10T02:35:45;0.97;;;0.97;;
32082;SDS011;18597;48.328;7.932;2023-05-10T02:38:13;1.37;;;1.00;;
32082;SDS011;18597;48.328;7.932;2023-05-10T02:40:40;1.10;;;1.10;;
32082;SDS011;18597;48.328;7.932;2023-05-10T02:43:09;1.87;;;1.27;;
32082;SDS011;18597;48.328;7.932;2023-05-10T02:45:40;1.30;;;1.30;;
32082;SDS011;18597;48.328;7.932;2023-05-10T02:48:08;0.97;;;0.97;;
32082;SDS011;18597;48.328;7.932;2023-05-10T02:50:33;1.00;;;1.00;;
32082;SDS011;18597;48.328;7.932;2023-05-10T02:53:34;1.40;;;1.40;;
32082;SDS011;18597;48.328;7.932;2023-05-10T02:55:53;1.00;;;1.00;;
32082;SDS011;18597;48.328;7.932;2023-05-10T02:58:23;2.50;;;1.23;;
32082;SDS011;18597;48.328;7.932;2023-05-10T03:00:50;1.23;;;1.23;;
32082;SDS011;18597;48.328;7.932;2023-05-10T03:03:16;2.23;;;1.60;;
32082;SDS011;18597;48.328;7.932;2023-05-10T03:05:42;1.27;;;1.27;;
32082;SDS011;18597;48.328;7.932;2023-05-10T03:08:08;1.17;;;1.17;;
32082;SDS011;18597;48.328;7.932;2023-05-10T03:10:47;1.47;;;1.43;;
32082;SDS011;18597;48.328;7.932;2023-05-10T03:13:47;1.60;;;1.50;;
32082;SDS011;18597;48.328;7.932;2023-05-10T03:16:41;5.40;;;2.03;;
32082;SDS011;18597;48.328;7.932;2023-05-10T03:19:17;8.00;;;2.60;;
32082;SDS011;18597;48.328;7.932;2023-05-10T03:21:52;1.73;;;1.63;;
32082;SDS011;18597;48.328;7.932;2023-05-10T03:24:21;4.30;;;2.13;;
32082;SDS011;18597;48.328;7.932;2023-05-10T03:26:52;5.30;;;1.77;;
32082;SDS011;18597;48.328;7.932;2023-05-10T03:29:24;2.10;;;1.60;;
32082;SDS011;18597;48.328;7.932;2023-05-10T03:31:52;1.07;;;1.07;;
32082;SDS011;18597;48.328;7.932;2023-05-10T03:34:23;1.23;;;1.23;;
32082;SDS011;18597;48.328;7.932;2023-05-10T03:36:49;1.50;;;1.50;;
32082;SDS011;18597;48.328;7.932;2023-05-10T03:39:15;1.87;;;1.77;;
32082;SDS011;18597;48.328;7.932;2023-05-10T03:41:41;3.40;;;1.40;;
32082;SDS011;18597;48.328;7.932;2023-05-10T03:44:07;1.53;;;1.53;;
32082;SDS011;18597;48.328;7.932;2023-05-10T03:46:33;3.03;;;1.70;;
32082;SDS011;18597;48.328;7.932;2023-05-10T03:48:59;2.80;;;1.50;;
32082;SDS011;18597;48.328;7.932;2023-05-10T03:51:25;1.80;;;1.37;;
32082;SDS011;18597;48.328;7.932;2023-05-10T03:53:53;5.70;;;2.07;;
32082;SDS011;18597;48.328;7.932;2023-05-10T03:56:20;2.10;;;1.90;;
32082;SDS011;18597;48.328;7.932;2023-05-10T03:58:46;2.20;;;2.10;;
32082;SDS011;18597;48.328;7.932;2023-05-10T04:01:12;3.60;;;2.00;;
32082;SDS011;18597;48.328;7.932;2023-05-10T04:03:38;2.20;;;2.00;;
32082;SDS011;18597;48.328;7.932;2023-05-10T04:06:03;2.40;;;1.73;;
32082;SDS011;18597;48.328;7.932;2023-05-10T04:08:30;2.83;;;1.57;;
32082;SDS011;18597;48.328;7.932;2023-05-10T04:11:11;2.40;;;1.87;;
32082;SDS011;18597;48.328;7.932;2023-05-10T04:13:38;1.97;;;1.87;;
32082;SDS011;18597;48.328;7.932;2023-05-10T04:16:04;8.13;;;2.23;;
32082;SDS011;18597;48.328;7.932;2023-05-10T04:18:30;2.50;;;2.07;;
32082;SDS011;18597;48.328;7.932;2023-05-10T04:20:56;1.40;;;1.40;;
32082;SDS011;18597;48.328;7.932;2023-05-10T04:23:22;1.90;;;1.80;;
32082;SDS011;18597;48.328;7.932;2023-05-10T04:25:48;2.30;;;1.90;;
32082;SDS011;18597;48.328;7.932;2023-05-10T04:28:14;2.33;;;2.23;;
32082;SDS011;18597;48.328;7.932;2023-05-10T04:30:40;2.50;;;1.50;;
32082;SDS011;18597;48.328;7.932;2023-05-10T04:33:06;5.13;;;2.20;;
32082;SDS011;18597;48.328;7.932;2023-05-10T04:35:32;2.27;;;2.27;;
32082;SDS011;18597;48.328;7.932;2023-05-10T04:37:59;3.40;;;2.40;;
32082;SDS011;18597;48.328;7.932;2023-05-10T04:40:24;7.57;;;2.57;;
32082;SDS011;18597;48.328;7.932;2023-05-10T04:42:51;7.10;;;2.90;;
32082;SDS011;18597;48.328;7.932;2023-05-10T04:45:17;1.80;;;1.80;;
32082;SDS011;18597;48.328;7.932;2023-05-10T04:47:43;2.10;;;1.90;;
32082;SDS011;18597;48.328;7.932;2023-05-10T04:50:08;3.43;;;2.40;;
32082;SDS011;18597;48.328;7.932;2023-05-10T04:52:34;2.33;;;2.23;;
32082;SDS011;18597;48.328;7.932;2023-05-10T04:55:01;6.90;;;3.20;;
32082;SDS011;18597;48.328;7.932;2023-05-10T04:57:27;2.73;;;2.63;;
32082;SDS011;18597;48.328;7.932;2023-05-10T04:59:53;3.57;;;3.37;;
32082;SDS011;18597;48.328;7.932;2023-05-10T05:02:18;15.83;;;3.10;;
32082;SDS011;18597;48.328;7.932;2023-05-10T05:04:45;5.80;;;3.10;;
32082;SDS011;18597;48.328;7.932;2023-05-10T05:07:11;2.57;;;2.47;;
32082;SDS011;18597;48.328;7.932;2023-05-10T05:09:36;4.13;;;3.00;;
32082;SDS011;18597;48.328;7.932;2023-05-10T05:12:02;4.53;;;2.83;;
32082;SDS011;18597;48.328;7.932;2023-05-10T05:14:28;5.43;;;2.80;;
32082;SDS011;18597;48.328;7.932;2023-05-10T05:16:54;3.30;;;3.00;;
32082;SDS011;18597;48.328;7.932;2023-05-10T05:19:20;9.80;;;3.03;;
32082;SDS011;18597;48.328;7.932;2023-05-10T05:21:47;3.13;;;2.87;;
32082;SDS011;18597;48.328;7.932;2023-05-10T05:24:13;3.27;;;3.17;;
32082;SDS011;18597;48.328;7.932;2023-05-10T05:26:39;3.27;;;3.07;;
32082;SDS011;18597;48.328;7.932;2023-05-10T05:29:04;5.47;;;3.10;;
32082;SDS011;18597;48.328;7.932;2023-05-10T05:31:30;5.60;;;3.70;;
32082;SDS011;18597;48.328;7.932;2023-05-10T05:33:56;3.00;;;2.70;;
32082;SDS011;18597;48.328;7.932;2023-05-10T05:36:22;3.03;;;2.83;;
32082;SDS011;18597;48.328;7.932;2023-05-10T05:38:48;3.77;;;3.30;;
32082;SDS011;18597;48.328;7.932;2023-05-10T05:41:13;4.43;;;3.30;;
32082;SDS011;18597;48.328;7.932;2023-05-10T05:43:39;5.37;;;2.90;;
32082;SDS011;18597;48.328;7.932;2023-05-10T05:46:05;4.10;;;3.80;;
32082;SDS011;18597;48.328;7.932;2023-05-10T05:48:31;4.07;;;3.30;;
32082;SDS011;18597;48.328;7.932;2023-05-10T05:50:57;2.90;;;2.30;;
32082;SDS011;18597;48.328;7.932;2023-05-10T05:53:23;7.40;;;2.50;;
32082;SDS011;18597;48.328;7.932;2023-05-10T05:55:51;2.17;;;2.07;;
32082;SDS011;18597;48.328;7.932;2023-05-10T05:58:22;5.50;;;2.47;;
32082;SDS011;18597;48.328;7.932;2023-05-10T06:00:49;7.20;;;2.90;;
32082;SDS011;18597;48.328;7.932;2023-05-10T06:03:16;2.87;;;2.67;;
32082;SDS011;18597;48.328;7.932;2023-05-10T06:05:43;6.50;;;2.67;;
32082;SDS011;18597;48.328;7.932;2023-05-10T06:08:09;2.00;;;1.97;;
32082;SDS011;18597;48.328;7.932;2023-05-10T06:10:35;4.70;;;3.20;;
32082;SDS011;18597;48.328;7.932;2023-05-10T06:13:02;2.77;;;2.43;;
32082;SDS011;18597;48.328;7.932;2023-05-10T06:15:27;2.30;;;2.20;;
32082;SDS011;18597;48.328;7.932;2023-05-10T06:17:53;3.50;;;2.50;;
32082;SDS011;18597;48.328;7.932;2023-05-10T06:20:19;9.73;;;3.00;;
32082;SDS011;18597;48.328;7.932;2023-05-10T06:22:45;2.50;;;2.30;;
32082;SDS011;18597;48.328;7.932;2023-05-10T06:25:11;3.70;;;3.60;;
32082;SDS011;18597;48.328;7.932;2023-05-10T06:27:37;4.30;;;3.70;;
32082;SDS011;18597;48.328;7.932;2023-05-10T06:30:03;5.67;;;2.93;;
32082;SDS011;18597;48.328;7.932;2023-05-10T06:32:30;3.33;;;2.53;;
32082;SDS011;18597;48.328;7.932;2023-05-10T06:34:56;2.27;;;2.13;;
32082;SDS011;18597;48.328;7.932;2023-05-10T06:37:22;3.17;;;2.53;;
32082;SDS011;18597;48.328;7.932;2023-05-10T06:39:48;2.37;;;2.37;;
32082;SDS011;18597;48.328;7.932;2023-05-10T06:42:13;4.73;;;2.70;;
32082;SDS011;18597;48.328;7.932;2023-05-10T06:44:39;3.43;;;3.23;;
32082;SDS011;18597;48.328;7.932;2023-05-10T06:47:05;6.73;;;2.00;;
32082;SDS011;18597;48.328;7.932;2023-05-10T06:49:31;3.10;;;2.90;;
32082;SDS011;18597;48.328;7.932;2023-05-10T06:51:57;3.10;;;2.90;;
32082;SDS011;18597;48.328;7.932;2023-05-10T06:54:22;5.70;;;2.43;;
32082;SDS011;18597;48.328;7.932;2023-05-10T06:56:48;2.30;;;2.30;;
32082;SDS011;18597;48.328;7.932;2023-05-10T06:59:14;3.13;;;3.03;;
32082;SDS011;18597;48.328;7.932;2023-05-10T07:01:41;2.17;;;2.17;;
32082;SDS011;18597;48.328;7.932;2023-05-10T07:04:07;2.57;;;2.37;;
32082;SDS011;18597;48.328;7.932;2023-05-10T07:06:33;2.73;;;2.10;;
32082;SDS011;18597;48.328;7.932;2023-05-10T07:08:59;3.77;;;1.70;;
32082;SDS011;18597;48.328;7.932;2023-05-10T07:11:25;2.73;;;2.33;;
32082;SDS011;18597;48.328;7.932;2023-05-10T07:13:51;2.80;;;2.70;;
32082;SDS011;18597;48.328;7.932;2023-05-10T07:16:18;2.13;;;2.03;;
32082;SDS011;18597;48.328;7.932;2023-05-10T07:18:44;1.50;;;1.50;;
32082;SDS011;18597;48.328;7.932;2023-05-10T07:21:09;2.00;;;1.93;;
32082;SDS011;18597;48.328;7.932;2023-05-10T07:23:35;3.23;;;1.80;;
32082;SDS011;18597;48.328;7.932;2023-05-10T07:26:01;2.53;;;2.33;;
32082;SDS011;18597;48.328;7.932;2023-05-10T07:28:27;2.27;;;1.43;;
32082;SDS011;18597;48.328;7.932;2023-05-10T07:30:53;3.47;;;1.60;;
32082;SDS011;18597;48.328;7.932;2023-05-10T07:33:19;2.17;;;1.50;;
32082;SDS011;18597;48.328;7.932;2023-05-10T07:35:44;1.33;;;1.33;;
32082;SDS011;18597;48.328;7.932;2023-05-10T07:38:11;5.13;;;1.50;;
32082;SDS011;18597;48.328;7.932;2023-05-10T07:40:37;1.40;;;1.40;;
32082;SDS011;18597;48.328;7.932;2023-05-10T07:43:04;1.60;;;1.07;;
32082;SDS011;18597;48.328;7.932;2023-05-10T07:45:29;0.40;;;0.40;;
32082;SDS011;18597;48.328;7.932;2023-05-10T07:47:55;0.60;;;0.60;;
32082;SDS011;18597;48.328;7.932;2023-05-10T07:50:21;1.40;;;0.70;;
32082;SDS011;18597;48.328;7.932;2023-05-10T07:52:47;3.03;;;0.93;;
32082;SDS011;18597;48.328;7.932;2023-05-10T07:55:13;1.80;;;1.80;;
32082;SDS011;18597;48.328;7.932;2023-05-10T07:57:39;1.60;;;0.87;;
32082;SDS011;18597;48.328;7.932;2023-05-10T08:00:05;0.47;;;0.47;;
32082;SDS011;18597;48.328;7.932;2023-05-10T08:02:33;0.80;;;0.80;;
32082;SDS011;18597;48.328;7.932;2023-05-10T08:05:00;0.70;;;0.70;;
32082;SDS011;18597;48.328;7.932;2023-05-10T08:07:26;1.23;;;0.77;;
32082;SDS011;18597;48.328;7.932;2023-05-10T08:09:52;3.60;;;1.40;;
32082;SDS011;18597;48.328;7.932;2023-05-10T08:12:18;1.67;;;0.93;;
32082;SDS011;18597;48.328;7.932;2023-05-10T08:14:44;0.77;;;0.60;;
32082;SDS011;18597;48.328;7.932;2023-05-10T08:17:10;1.20;;;1.10;;
32082;SDS011;18597;48.328;7.932;2023-05-10T08:19:36;0.77;;;0.77;;
32082;SDS011;18597;48.328;7.932;2023-05-10T08:22:01;1.60;;;0.50;;
32082;SDS011;18597;48.328;7.932;2023-05-10T08:24:27;0.97;;;0.70;;
32082;SDS011;18597;48.328;7.932;2023-05-10T08:26:53;0.80;;;0.80;;
32082;SDS011;18597;48.328;7.932;2023-05-10T08:29:19;1.73;;;1.03;;
32082;SDS011;18597;48.328;7.932;2023-05-10T08:31:45;0.90;;;0.43;;
32082;SDS011;18597;48.328;7.932;2023-05-10T08:34:10;2.63;;;0.80;;
32082;SDS011;18597;48.328;7.932;2023-05-10T08:36:36;3.17;;;0.80;;
32082;SDS011;18597;48.328;7.932;2023-05-10T08:39:02;0.70;;;0.70;;
32082;SDS011;18597;48.328;7.932;2023-05-10T08:41:28;3.13;;;0.80;;
32082;SDS011;18597;48.328;7.932;2023-05-10T08:43:57;3.53;;;0.80;;
32082;SDS011;18597;48.328;7.932;2023-05-10T08:46:23;0.80;;;0.80;;
32082;SDS011;18597;48.328;7.932;2023-05-10T08:48:51;0.90;;;0.90;;
32082;SDS011;18597;48.328;7.932;2023-05-10T08:51:19;0.67;;;0.63;;
32082;SDS011;18597;48.328;7.932;2023-05-10T08:53:51;1.90;;;0.60;;
32082;SDS011;18597;48.328;7.932;2023-05-10T08:56:18;1.00;;;1.00;;
32082;SDS011;18597;48.328;7.932;2023-05-10T08:58:45;2.00;;;0.70;;
32082;SDS011;18597;48.328;7.932;2023-05-10T09:01:11;6.67;;;1.20;;
32082;SDS011;18597;48.328;7.932;2023-05-10T09:03:38;2.10;;;1.73;;
32082;SDS011;18597;48.328;7.932;2023-05-10T09:06:05;1.77;;;1.13;;
32082;SDS011;18597;48.328;7.932;2023-05-10T09:08:31;4.43;;;1.13;;
32082;SDS011;18597;48.328;7.932;2023-05-10T09:10:59;7.87;;;2.97;;
32082;SDS011;18597;48.328;7.932;2023-05-10T09:13:26;2.03;;;1.80;;
32082;SDS011;18597;48.328;7.932;2023-05-10T09:15:53;2.10;;;2.00;;
32082;SDS011;18597;48.328;7.932;2023-05-10T09:18:19;1.47;;;1.47;;
32082;SDS011;18597;48.328;7.932;2023-05-10T09:20:45;1.80;;;0.80;;
32082;SDS011;18597;48.328;7.932;2023-05-10T09:23:11;6.13;;;1.27;;
32082;SDS011;18597;48.328;7.932;2023-05-10T09:25:36;1.80;;;0.87;;
32082;SDS011;18597;48.328;7.932;2023-05-10T09:28:05;3.10;;;1.00;;
32082;SDS011;18597;48.328;7.932;2023-05-10T09:30:33;1.67;;;1.57;;
32082;SDS011;18597;48.328;7.932;2023-05-10T09:32:59;1.43;;;0.80;;
32082;SDS011;18597;48.328;7.932;2023-05-10T09:35:26;0.70;;;0.70;;
32082;SDS011;18597;48.328;7.932;2023-05-10T09:38:02;2.63;;;1.47;;
32082;SDS011;18597;48.328;7.932;2023-05-10T09:40:29;1.90;;;0.73;;
32082;SDS011;18597;48.328;7.932;2023-05-10T09:42:57;2.83;;;0.80;;
32082;SDS011;18597;48.328;7.932;2023-05-10T09:45:27;0.80;;;0.80;;
32082;SDS011;18597;48.328;7.932;2023-05-10T09:47:56;2.80;;;1.13;;
32082;SDS011;18597;48.328;7.932;2023-05-10T09:50:22;3.67;;;1.07;;
32082;SDS011;18597;48.328;7.932;2023-05-10T09:52:50;1.30;;;1.20;;
32082;SDS011;18597;48.328;7.932;2023-05-10T09:55:21;1.23;;;1.00;;
32082;SDS011;18597;48.328;7.932;2023-05-10T09:57:58;1.53;;;0.80;;
32082;SDS011;18597;48.328;7.932;2023-05-10T10:00:25;0.70;;;0.70;;
32082;SDS011;18597;48.328;7.932;2023-05-10T10:02:55;2.40;;;1.37;;
32082;SDS011;18597;48.328;7.932;2023-05-10T10:05:27;2.70;;;0.83;;
32082;SDS011;18597;48.328;7.932;2023-05-10T10:07:59;2.43;;;0.70;;
32082;SDS011;18597;48.328;7.932;2023-05-10T10:10:27;1.10;;;1.00;;
32082;SDS011;18597;48.328;7.932;2023-05-10T10:12:54;1.17;;;1.17;;
32082;SDS011;18597;48.328;7.932;2023-05-10T10:15:21;3.70;;;1.23;;
32082;SDS011;18597;48.328;7.932;2023-05-10T10:17:48;1.40;;;1.40;;
32082;SDS011;18597;48.328;7.932;2023-05-10T10:20:15;2.67;;;1.33;;
32082;SDS011;18597;48.328;7.932;2023-05-10T10:22:43;5.43;;;1.40;;
32082;SDS011;18597;48.328;7.932;2023-05-10T10:25:10;3.20;;;1.27;;
32082;SDS011;18597;48.328;7.932;2023-05-10T10:30:36;0.90;;;0.90;;
32082;SDS011;18597;48.328;7.932;2023-05-10T10:36:16;0.97;;;0.67;;
32082;SDS011;18597;48.328;7.932;2023-05-10T10:41:27;0.87;;;0.83;;
32082;SDS011;18597;48.328;7.932;2023-05-10T10:52:20;0.77;;;0.40;;
32082;SDS011;18597;48.328;7.932;2023-05-10T10:55:02;1.97;;;0.83;;
32082;SDS011;18597;48.328;7.932;2023-05-10T10:57:54;3.30;;;1.10;;
32082;SDS011;18597;48.328;7.932;2023-05-10T11:00:30;0.80;;;0.80;;
32082;SDS011;18597;48.328;7.932;2023-05-10T11:03:06;0.50;;;0.50;;
32082;SDS011;18597;48.328;7.932;2023-05-10T11:05:40;2.20;;;0.73;;
32082;SDS011;18597;48.328;7.932;2023-05-10T11:11:03;1.53;;;1.00;;
32082;SDS011;18597;48.328;7.932;2023-05-10T11:13:33;0.93;;;0.50;;
32082;SDS011;18597;48.328;7.932;2023-05-10T11:16:19;3.17;;;0.60;;
32082;SDS011;18597;48.328;7.932;2023-05-10T11:18:52;2.00;;;0.90;;
32082;SDS011;18597;48.328;7.932;2023-05-10T11:21:22;2.10;;;0.73;;
32082;SDS011;18597;48.328;7.932;2023-05-10T11:23:50;2.20;;;0.90;;
32082;SDS011;18597;48.328;7.932;2023-05-10T11:26:21;2.10;;;0.80;;
32082;SDS011;18597;48.328;7.932;2023-05-10T11:28:51;2.97;;;0.50;;
32082;SDS011;18597;48.328;7.932;2023-05-10T11:31:20;0.50;;;0.40;;
32082;SDS011;18597;48.328;7.932;2023-05-10T11:33:49;0.70;;;0.60;;
32082;SDS011;18597;48.328;7.932;2023-05-10T11:36:18;1.63;;;0.70;;
32082;SDS011;18597;48.328;7.932;2023-05-10T11:38:47;2.57;;;1.20;;
32082;SDS011;18597;48.328;7.932;2023-05-10T11:41:14;0.40;;;0.40;;
32082;SDS011;18597;48.328;7.932;2023-05-10T11:43:44;3.03;;;0.70;;
32082;SDS011;18597;48.328;7.932;2023-05-10T11:46:12;0.90;;;0.53;;
32082;SDS011;18597;48.328;7.932;2023-05-10T11:48:39;0.63;;;0.60;;
32082;SDS011;18597;48.328;7.932;2023-05-10T11:51:07;0.57;;;0.43;;
32082;SDS011;18597;48.328;7.932;2023-05-10T11:53:35;0.70;;;0.70;;
32082;SDS011;18597;48.328;7.932;2023-05-10T11:56:02;3.30;;;0.73;;
32082;SDS011;18597;48.328;7.932;2023-05-10T11:58:33;1.47;;;0.70;;
32082;SDS011;18597;48.328;7.932;2023-05-10T12:01:00;3.73;;;0.83;;
32082;SDS011;18597;48.328;7.932;2023-05-10T12:03:27;4.43;;;0.87;;
32082;SDS011;18597;48.328;7.932;2023-05-10T12:05:54;0.80;;;0.80;;
32082;SDS011;18597;48.328;7.932;2023-05-10T12:08:21;1.80;;;0.60;;
32082;SDS011;18597;48.328;7.932;2023-05-10T12:10:50;5.80;;;0.67;;
32082;SDS011;18597;48.328;7.932;2023-05-10T12:13:17;0.97;;;0.50;;
32082;SDS011;18597;48.328;7.932;2023-05-10T12:15:45;2.30;;;0.73;;
32082;SDS011;18597;48.328;7.932;2023-05-10T12:18:12;2.10;;;0.70;;
32082;SDS011;18597;48.328;7.932;2023-05-10T12:20:39;0.40;;;0.40;;
32082;SDS011;18597;48.328;7.932;2023-05-10T12:23:08;0.63;;;0.63;;
32082;SDS011;18597;48.328;7.932;2023-05-10T12:25:36;0.90;;;0.70;;
32082;SDS011;18597;48.328;7.932;2023-05-10T12:28:04;3.33;;;1.00;;
32082;SDS011;18597;48.328;7.932;2023-05-10T12:30:32;2.00;;;0.63;;
32082;SDS011;18597;48.328;7.932;2023-05-10T12:33:01;0.87;;;0.87;;
32082;SDS011;18597;48.328;7.932;2023-05-10T12:35:44;0.40;;;0.30;;
32082;SDS011;18597;48.328;7.932;2023-05-10T12:38:46;3.40;;;0.63;;
32082;SDS011;18597;48.328;7.932;2023-05-10T12:41:07;1.33;;;0.70;;
32082;SDS011;18597;48.328;7.932;2023-05-10T12:43:36;0.50;;;0.50;;
32082;SDS011;18597;48.328;7.932;2023-05-10T12:46:04;19.33;;;1.10;;
32082;SDS011;18597;48.328;7.932;2023-05-10T12:48:33;1.10;;;0.80;;
32082;SDS011;18597;48.328;7.932;2023-05-10T12:51:00;1.67;;;0.50;;
32082;SDS011;18597;48.328;7.932;2023-05-10T12:53:28;1.40;;;0.80;;
32082;SDS011;18597;48.328;7.932;2023-05-10T12:55:54;0.57;;;0.57;;
32082;SDS011;18597;48.328;7.932;2023-05-10T12:58:21;1.50;;;0.77;;
32082;SDS011;18597;48.328;7.932;2023-05-10T13:00:46;0.50;;;0.50;;
32082;SDS011;18597;48.328;7.932;2023-05-10T13:03:12;0.87;;;0.43;;
32082;SDS011;18597;48.328;7.932;2023-05-10T13:05:38;2.90;;;1.20;;
32082;SDS011;18597;48.328;7.932;2023-05-10T13:08:04;3.70;;;0.77;;
32082;SDS011;18597;48.328;7.932;2023-05-10T13:10:30;1.03;;;0.73;;
32082;SDS011;18597;48.328;7.932;2023-05-10T13:12:57;1.07;;;0.73;;
32082;SDS011;18597;48.328;7.932;2023-05-10T13:15:24;1.57;;;0.53;;
32082;SDS011;18597;48.328;7.932;2023-05-10T13:17:50;0.80;;;0.40;;
32082;SDS011;18597;48.328;7.932;2023-05-10T13:20:16;3.87;;;0.77;;
32082;SDS011;18597;48.328;7.932;2023-05-10T13:22:43;2.30;;;1.37;;
32082;SDS011;18597;48.328;7.932;2023-05-10T13:25:09;1.90;;;0.63;;
32082;SDS011;18597;48.328;7.932;2023-05-10T13:27:36;0.50;;;0.50;;
32082;SDS011;18597;48.328;7.932;2023-05-10T13:30:03;0.70;;;0.60;;
32082;SDS011;18597;48.328;7.932;2023-05-10T13:32:30;1.17;;;0.70;;
32082;SDS011;18597;48.328;7.932;2023-05-10T13:34:55;0.60;;;0.47;;
32082;SDS011;18597;48.328;7.932;2023-05-10T13:37:21;0.97;;;0.87;;
32082;SDS011;18597;48.328;7.932;2023-05-10T13:39:47;2.03;;;0.60;;
32082;SDS011;18597;48.328;7.932;2023-05-10T13:42:13;0.97;;;0.97;;
32082;SDS011;18597;48.328;7.932;2023-05-10T13:44:39;2.10;;;1.00;;
32082;SDS011;18597;48.328;7.932;2023-05-10T13:47:05;4.63;;;1.17;;
32082;SDS011;18597;48.328;7.932;2023-05-10T13:49:31;1.47;;;0.80;;
32082;SDS011;18597;48.328;7.932;2023-05-10T13:51:58;1.03;;;0.50;;
32082;SDS011;18597;48.328;7.932;2023-05-10T13:54:31;3.60;;;0.97;;
32082;SDS011;18597;48.328;7.932;2023-05-10T13:56:58;1.07;;;0.67;;
32082;SDS011;18597;48.328;7.932;2023-05-10T13:59:24;3.60;;;0.60;;
32082;SDS011;18597;48.328;7.932;2023-05-10T14:01:50;2.00;;;1.13;;
32082;SDS011;18597;48.328;7.932;2023-05-10T14:04:16;0.97;;;0.97;;
32082;SDS011;18597;48.328;7.932;2023-05-10T14:06:42;4.47;;;0.80;;
32082;SDS011;18597;48.328;7.932;2023-05-10T14:09:08;1.27;;;0.97;;
32082;SDS011;18597;48.328;7.932;2023-05-10T14:11:34;1.70;;;0.60;;
32082;SDS011;18597;48.328;7.932;2023-05-10T14:14:00;2.67;;;0.80;;
32082;SDS011;18597;48.328;7.932;2023-05-10T14:16:26;0.40;;;0.40;;
32082;SDS011;18597;48.328;7.932;2023-05-10T14:18:52;8.80;;;1.57;;
32082;SDS011;18597;48.328;7.932;2023-05-10T14:21:18;3.40;;;0.80;;
32082;SDS011;18597;48.328;7.932;2023-05-10T14:23:43;0.73;;;0.50;;
32082;SDS011;18597;48.328;7.932;2023-05-10T14:26:09;0.70;;;0.70;;
32082;SDS011;18597;48.328;7.932;2023-05-10T14:28:35;1.13;;;0.60;;
32082;SDS011;18597;48.328;7.932;2023-05-10T14:31:01;2.80;;;0.47;;
32082;SDS011;18597;48.328;7.932;2023-05-10T14:33:27;2.30;;;0.70;;
32082;SDS011;18597;48.328;7.932;2023-05-10T14:35:53;4.00;;;0.40;;
32082;SDS011;18597;48.328;7.932;2023-05-10T14:38:21;1.47;;;0.80;;
32082;SDS011;18597;48.328;7.932;2023-05-10T14:40:48;0.53;;;0.53;;
32082;SDS011;18597;48.328;7.932;2023-05-10T14:43:14;0.43;;;0.43;;
32082;SDS011;18597;48.328;7.932;2023-05-10T14:45:40;1.53;;;0.40;;
32082;SDS011;18597;48.328;7.932;2023-05-10T14:48:06;0.93;;;0.30;;
32082;SDS011;18597;48.328;7.932;2023-05-10T14:50:36;1.80;;;0.60;;
32082;SDS011;18597;48.328;7.932;2023-05-10T14:53:02;1.63;;;0.67;;
32082;SDS011;18597;48.328;7.932;2023-05-10T14:55:27;1.10;;;0.90;;
32082;SDS011;18597;48.328;7.932;2023-05-10T14:57:53;1.83;;;1.00;;
32082;SDS011;18597;48.328;7.932;2023-05-10T15:00:20;1.00;;;1.00;;
32082;SDS011;18597;48.328;7.932;2023-05-10T15:02:46;1.90;;;0.43;;
32082;SDS011;18597;48.328;7.932;2023-05-10T15:05:13;1.20;;;0.43;;
32082;SDS011;18597;48.328;7.932;2023-05-10T15:07:39;0.40;;;0.40;;
32082;SDS011;18597;48.328;7.932;2023-05-10T15:10:05;1.37;;;0.50;;
32082;SDS011;18597;48.328;7.932;2023-05-10T15:12:32;1.23;;;1.23;;
32082;SDS011;18597;48.328;7.932;2023-05-10T15:14:57;1.07;;;1.07;;
32082;SDS011;18597;48.328;7.932;2023-05-10T15:17:23;0.83;;;0.83;;
32082;SDS011;18597;48.328;7.932;2023-05-10T15:19:49;1.07;;;0.73;;